Time;durP1;ratioP1;P1;durP2;ratioP2;P2;SDS_P1;SDS_P2;PMS_P1;PMS_P2;Temp;Humidity;BMP_temperature;BMP_pressure;BME280_temperature;BME280_humidity;BME280_pressure;Samples;Min_cycle;Max_cycle;Signal;HPM_P1;HPM_P2
2022/11/20 00:01:34;;;;;;;12.90;11.60;;;;;;;;;;108577;1265;22530;-34
2022/11/20 00:04:06;;;;;;;13.40;12.00;;;;;;;;;;108516;1265;22513;-34
2022/11/20 00:06:38;;;;;;;12.40;11.10;;;;;;;;;;108588;1265;23847;-34
2022/11/20 00:09:12;;;;;;;12.30;10.90;;;;;;;;;;108581;1265;22545;-34
2022/11/20 00:11:44;;;;;;;12.70;11.50;;;;;;;;;;108595;1265;22522;-34
2022/11/20 00:14:16;;;;;;;13.70;12.20;;;;;;;;;;108551;1265;22544;-34
2022/11/20 00:16:50;;;;;;;13.10;11.80;;;;;;;;;;108585;1265;22607;-34
2022/11/20 00:19:22;;;;;;;13.80;12.40;;;;;;;;;;108569;1263;22634;-34
2022/11/20 00:21:55;;;;;;;13.50;12.10;;;;;;;;;;108580;1265;22545;-34
2022/11/20 00:24:27;;;;;;;13.30;11.90;;;;;;;;;;108560;1265;22113;-33
2022/11/20 00:27:00;;;;;;;13.30;12.00;;;;;;;;;;108562;1264;22523;-33
2022/11/20 00:29:33;;;;;;;13.50;12.10;;;;;;;;;;108575;1259;22602;-34
2022/11/20 00:32:05;;;;;;;13.20;11.90;;;;;;;;;;108572;1265;22557;-34
2022/11/20 00:34:37;;;;;;;13.50;12.00;;;;;;;;;;108562;1259;22544;-31
2022/11/20 00:37:10;;;;;;;13.60;12.20;;;;;;;;;;108597;1265;23784;-31
2022/11/20 00:39:41;;;;;;;13.70;12.30;;;;;;;;;;108570;1265;22595;-31
2022/11/20 00:42:13;;;;;;;13.00;11.70;;;;;;;;;;108574;1265;22551;-31
2022/11/20 00:44:45;;;;;;;13.40;12.00;;;;;;;;;;108538;1265;22552;-34
2022/11/20 00:47:20;;;;;;;14.00;12.50;;;;;;;;;;108583;1265;22662;-34
2022/11/20 00:49:52;;;;;;;13.30;12.00;;;;;;;;;;108554;1262;22554;-31
2022/11/20 00:52:24;;;;;;;14.20;12.60;;;;;;;;;;108594;1265;22524;-31
2022/11/20 00:54:56;;;;;;;13.10;11.80;;;;;;;;;;108547;1265;25343;-31
2022/11/20 00:57:29;;;;;;;13.40;12.00;;;;;;;;;;108570;1265;22604;-31
2022/11/20 01:00:01;;;;;;;13.90;12.30;;;;;;;;;;108564;1265;22611;-31
2022/11/20 01:02:33;;;;;;;13.20;11.90;;;;;;;;;;108572;1265;22514;-31
2022/11/20 01:05:06;;;;;;;13.20;11.80;;;;;;;;;;108547;1262;22543;-31
2022/11/20 01:07:38;;;;;;;13.40;11.80;;;;;;;;;;108575;1265;22744;-31
2022/11/20 01:10:12;;;;;;;14.00;12.60;;;;;;;;;;108542;1265;22699;-31
2022/11/20 01:13:36;;;;;;;13.10;11.60;;;;;;;;;;108576;1265;22502;-31
2022/11/20 01:15:38;;;;;;;14.20;12.60;;;;;;;;;;108516;1265;22598;-30
2022/11/20 01:18:10;;;;;;;13.10;11.70;;;;;;;;;;108594;1265;22541;-34
2022/11/20 01:20:42;;;;;;;13.30;11.90;;;;;;;;;;108565;1265;22700;-33
2022/11/20 01:23:14;;;;;;;13.70;12.00;;;;;;;;;;108604;1265;22604;-34
2022/11/20 01:25:46;;;;;;;13.20;11.80;;;;;;;;;;108554;1265;22568;-33
2022/11/20 01:28:19;;;;;;;12.90;11.50;;;;;;;;;;108594;1258;22530;-34
2022/11/20 01:30:50;;;;;;;14.50;12.80;;;;;;;;;;108586;1258;24254;-34
2022/11/20 01:33:23;;;;;;;13.80;12.40;;;;;;;;;;108544;1266;22573;-33
2022/11/20 01:36:03;;;;;;;13.20;11.80;;;;;;;;;;108514;1265;22508;-34
2022/11/20 01:38:35;;;;;;;13.60;12.10;;;;;;;;;;108534;1258;22608;-34
2022/11/20 01:41:09;;;;;;;14.30;12.30;;;;;;;;;;108565;1265;22690;-34
2022/11/20 01:43:41;;;;;;;12.60;11.30;;;;;;;;;;108569;1264;22513;-31
2022/11/20 01:46:21;;;;;;;13.60;12.20;;;;;;;;;;108563;1265;22510;-31
2022/11/20 01:48:59;;;;;;;13.60;12.10;;;;;;;;;;108608;1259;24199;-31
2022/11/20 01:51:36;;;;;;;13.50;12.00;;;;;;;;;;108559;1265;24209;-31
2022/11/20 01:54:12;;;;;;;13.00;11.50;;;;;;;;;;108612;1265;22622;-31
2022/11/20 01:56:48;;;;;;;13.30;11.80;;;;;;;;;;108575;1265;23849;-31
2022/11/20 01:59:25;;;;;;;13.40;11.80;;;;;;;;;;108591;1265;22509;-31
2022/11/20 02:01:57;;;;;;;13.10;11.70;;;;;;;;;;108579;1263;22622;-31
2022/11/20 02:04:30;;;;;;;13.30;11.90;;;;;;;;;;108594;1265;23846;-31
2022/11/20 02:07:05;;;;;;;13.30;11.90;;;;;;;;;;108517;1256;22713;-31
2022/11/20 02:09:37;;;;;;;13.50;11.90;;;;;;;;;;108549;1265;23827;-31
2022/11/20 02:13:42;;;;;;;12.80;11.30;;;;;;;;;;108570;1265;22700;-31
2022/11/20 02:15:02;;;;;;;13.30;11.90;;;;;;;;;;108605;1259;22492;-31
2022/11/20 02:17:34;;;;;;;13.50;11.90;;;;;;;;;;108582;1265;24090;-31
2022/11/20 02:20:12;;;;;;;13.70;12.00;;;;;;;;;;108578;1265;23896;-31
2022/11/20 02:22:57;;;;;;;13.40;11.80;;;;;;;;;;108536;1265;22553;-31
2022/11/20 02:25:31;;;;;;;13.60;12.10;;;;;;;;;;108598;1265;22502;-31
2022/11/20 02:28:03;;;;;;;13.10;11.50;;;;;;;;;;108598;1265;22512;-31
2022/11/20 02:30:35;;;;;;;13.40;11.90;;;;;;;;;;108588;1265;22826;-31
2022/11/20 02:33:07;;;;;;;13.30;11.40;;;;;;;;;;108598;1265;23847;-33
2022/11/20 02:35:48;;;;;;;13.80;12.20;;;;;;;;;;108615;1265;22569;-33
2022/11/20 02:38:20;;;;;;;13.40;12.00;;;;;;;;;;108588;1258;22605;-33
2022/11/20 02:40:52;;;;;;;13.20;11.80;;;;;;;;;;108601;1265;22531;-33
2022/11/20 02:43:25;;;;;;;13.50;12.00;;;;;;;;;;108562;1265;22705;-33
2022/11/20 02:45:56;;;;;;;13.50;12.10;;;;;;;;;;108577;1265;22536;-33
2022/11/20 02:48:28;;;;;;;12.90;11.30;;;;;;;;;;108584;1265;25439;-33
2022/11/20 02:51:00;;;;;;;13.90;12.10;;;;;;;;;;108592;1259;22600;-34
2022/11/20 02:54:03;;;;;;;13.40;11.90;;;;;;;;;;108591;1265;22583;-33
2022/11/20 02:56:35;;;;;;;13.80;12.20;;;;;;;;;;108568;1265;22517;-33
2022/11/20 02:59:08;;;;;;;13.60;11.90;;;;;;;;;;108584;1264;22579;-34
2022/11/20 03:01:39;;;;;;;12.90;11.60;;;;;;;;;;108580;1262;22610;-33
2022/11/20 03:04:12;;;;;;;13.10;11.80;;;;;;;;;;108572;1265;22724;-34
2022/11/20 03:06:44;;;;;;;13.30;11.70;;;;;;;;;;108519;1265;22542;-34
2022/11/20 03:09:16;;;;;;;13.40;11.90;;;;;;;;;;108618;1265;25937;-33
2022/11/20 03:11:51;;;;;;;13.10;11.60;;;;;;;;;;108583;1265;24193;-34
2022/11/20 03:14:23;;;;;;;13.10;11.70;;;;;;;;;;108605;1259;22545;-33
2022/11/20 03:16:55;;;;;;;12.70;11.30;;;;;;;;;;108535;1265;22601;-34
2022/11/20 03:19:27;;;;;;;12.80;10.90;;;;;;;;;;108527;1265;22551;-33
2022/11/20 03:22:00;;;;;;;13.60;11.10;;;;;;;;;;108581;1265;22607;-33
2022/11/20 03:24:33;;;;;;;12.80;11.40;;;;;;;;;;108492;1265;22561;-33
2022/11/20 03:27:04;;;;;;;13.30;11.70;;;;;;;;;;108543;1265;22543;-33
2022/11/20 03:29:37;;;;;;;13.40;11.40;;;;;;;;;;108573;1265;26415;-33
2022/11/20 03:32:10;;;;;;;13.60;11.10;;;;;;;;;;108606;1265;22497;-34
2022/11/20 03:34:42;;;;;;;13.70;12.20;;;;;;;;;;108557;1263;22592;-34
2022/11/20 03:37:14;;;;;;;14.00;11.80;;;;;;;;;;108548;1265;25402;-33
2022/11/20 03:39:47;;;;;;;12.60;11.20;;;;;;;;;;108587;1259;22612;-33
2022/11/20 03:45:14;;;;;;;12.50;11.20;;;;;;;;;;108588;1265;22497;-33
2022/11/20 03:47:48;;;;;;;12.50;10.70;;;;;;;;;;108585;1265;22552;-33
2022/11/20 03:50:21;;;;;;;13.00;11.40;;;;;;;;;;108580;1265;25404;-33
2022/11/20 03:52:53;;;;;;;13.90;11.50;;;;;;;;;;108598;1264;22616;-34
2022/11/20 03:55:26;;;;;;;12.70;11.00;;;;;;;;;;108612;1265;22519;-33
2022/11/20 03:58:01;;;;;;;12.70;11.10;;;;;;;;;;108568;1265;22593;-33
2022/11/20 04:00:33;;;;;;;12.90;11.20;;;;;;;;;;108610;1265;22510;-33
2022/11/20 04:03:05;;;;;;;12.20;10.80;;;;;;;;;;108390;1265;290852;-34
2022/11/20 04:05:40;;;;;;;14.40;11.30;;;;;;;;;;108562;1265;23000;-34
2022/11/20 04:08:12;;;;;;;12.60;11.10;;;;;;;;;;108553;1262;22561;-33
2022/11/20 04:10:44;;;;;;;13.70;11.40;;;;;;;;;;108586;1265;22543;-34
2022/11/20 04:13:16;;;;;;;11.90;10.70;;;;;;;;;;108588;1265;22536;-33
2022/11/20 04:15:48;;;;;;;13.80;11.60;;;;;;;;;;108603;1265;22555;-34
2022/11/20 04:18:20;;;;;;;13.40;11.80;;;;;;;;;;108561;1265;22510;-33
2022/11/20 04:20:52;;;;;;;13.10;11.00;;;;;;;;;;108587;1265;23894;-34
2022/11/20 04:23:25;;;;;;;13.00;11.40;;;;;;;;;;108591;1265;22607;-33
2022/11/20 04:26:01;;;;;;;12.90;11.30;;;;;;;;;;108580;1265;24326;-33
2022/11/20 04:28:33;;;;;;;13.60;11.50;;;;;;;;;;108560;1265;22568;-33
2022/11/20 04:31:10;;;;;;;13.00;11.50;;;;;;;;;;108582;1265;25462;-33
2022/11/20 04:33:44;;;;;;;13.00;11.40;;;;;;;;;;108610;1265;23169;-34
2022/11/20 04:36:18;;;;;;;13.30;10.80;;;;;;;;;;108587;1265;22550;-33
2022/11/20 04:38:55;;;;;;;13.80;11.50;;;;;;;;;;108573;1265;23844;-33
2022/11/20 04:41:29;;;;;;;12.70;11.30;;;;;;;;;;108570;1265;22550;-33
2022/11/20 04:44:04;;;;;;;13.40;11.00;;;;;;;;;;108579;1265;22543;-33
2022/11/20 04:46:39;;;;;;;12.20;10.90;;;;;;;;;;108638;1265;22593;-34
2022/11/20 04:49:12;;;;;;;12.70;11.10;;;;;;;;;;108587;1265;22515;-33
2022/11/20 04:51:45;;;;;;;12.70;11.30;;;;;;;;;;108582;1258;22584;-34
2022/11/20 04:54:17;;;;;;;13.70;11.90;;;;;;;;;;108574;1265;25219;-33
2022/11/20 04:56:52;;;;;;;12.50;11.20;;;;;;;;;;108622;1265;22545;-33
2022/11/20 04:59:25;;;;;;;13.00;11.30;;;;;;;;;;108552;1265;22715;-33
2022/11/20 05:01:57;;;;;;;12.90;11.30;;;;;;;;;;108593;1265;24182;-33
2022/11/20 05:04:29;;;;;;;13.00;11.30;;;;;;;;;;108577;1265;23868;-33
2022/11/20 05:07:02;;;;;;;13.80;11.80;;;;;;;;;;108608;1259;22549;-33
2022/11/20 05:09:34;;;;;;;12.80;11.30;;;;;;;;;;108542;1265;22552;-33
2022/11/20 05:12:09;;;;;;;12.80;11.10;;;;;;;;;;108591;1265;22494;-33
2022/11/20 05:14:41;;;;;;;12.80;11.00;;;;;;;;;;108572;1265;22499;-33
2022/11/20 05:17:15;;;;;;;13.30;11.50;;;;;;;;;;108566;1265;22504;-34
2022/11/20 05:19:47;;;;;;;13.30;11.50;;;;;;;;;;108542;1265;22560;-33
2022/11/20 05:22:19;;;;;;;13.20;11.70;;;;;;;;;;108586;1265;22555;-33
2022/11/20 05:24:53;;;;;;;12.80;11.30;;;;;;;;;;108560;1265;23894;-33
2022/11/20 05:27:26;;;;;;;12.70;11.10;;;;;;;;;;108496;1265;22540;-33
2022/11/20 05:29:58;;;;;;;12.70;11.00;;;;;;;;;;108408;1265;22694;-33
2022/11/20 05:32:30;;;;;;;12.70;11.00;;;;;;;;;;108514;1267;22485;-33
2022/11/20 05:35:04;;;;;;;13.30;11.70;;;;;;;;;;108569;1265;22501;-34
2022/11/20 05:37:37;;;;;;;12.60;11.10;;;;;;;;;;108595;1259;22565;-33
2022/11/20 05:40:13;;;;;;;12.90;11.40;;;;;;;;;;108531;1265;22569;-33
2022/11/20 05:42:48;;;;;;;13.30;11.10;;;;;;;;;;108585;1265;22553;-33
2022/11/20 05:45:23;;;;;;;13.00;11.20;;;;;;;;;;108562;1265;25423;-33
2022/11/20 05:47:58;;;;;;;12.60;10.90;;;;;;;;;;108540;1265;22564;-34
2022/11/20 05:50:31;;;;;;;12.30;10.90;;;;;;;;;;108524;1265;25271;-33
2022/11/20 05:53:05;;;;;;;12.50;10.70;;;;;;;;;;108566;1265;22511;-33
2022/11/20 05:55:37;;;;;;;12.30;10.90;;;;;;;;;;108554;1265;22557;-33
2022/11/20 05:58:09;;;;;;;12.70;10.90;;;;;;;;;;108517;1265;22552;-33
2022/11/20 06:00:44;;;;;;;13.40;11.20;;;;;;;;;;108508;1265;22524;-33
2022/11/20 06:03:16;;;;;;;12.20;10.60;;;;;;;;;;108548;1265;24176;-33
2022/11/20 06:05:49;;;;;;;12.70;11.00;;;;;;;;;;108573;1266;22550;-34
2022/11/20 06:08:21;;;;;;;12.40;10.70;;;;;;;;;;108557;1265;25313;-34
2022/11/20 06:10:55;;;;;;;12.00;10.70;;;;;;;;;;108522;1265;25394;-33
2022/11/20 06:13:29;;;;;;;13.00;10.90;;;;;;;;;;108590;1265;22547;-33
2022/11/20 06:16:03;;;;;;;12.60;11.10;;;;;;;;;;108583;1265;23938;-33
2022/11/20 06:18:36;;;;;;;12.70;11.00;;;;;;;;;;108552;1265;22606;-33
2022/11/20 06:21:14;;;;;;;13.10;11.00;;;;;;;;;;108541;1265;24879;-33
2022/11/20 06:23:46;;;;;;;12.60;10.80;;;;;;;;;;108587;1270;22605;-34
2022/11/20 06:26:21;;;;;;;13.00;11.00;;;;;;;;;;108554;1265;22571;-34
2022/11/20 06:28:56;;;;;;;12.70;11.20;;;;;;;;;;108561;1264;24197;-33
2022/11/20 06:31:29;;;;;;;13.30;11.30;;;;;;;;;;108521;1265;22500;-34
2022/11/20 06:34:01;;;;;;;12.70;10.80;;;;;;;;;;108452;1268;22589;-33
2022/11/20 06:36:34;;;;;;;13.30;11.10;;;;;;;;;;108589;1265;22496;-34
2022/11/20 06:39:06;;;;;;;13.00;10.90;;;;;;;;;;108540;1265;22636;-33
2022/11/20 06:41:38;;;;;;;13.10;11.20;;;;;;;;;;108497;1265;25676;-34
2022/11/20 06:44:11;;;;;;;11.70;10.50;;;;;;;;;;108557;1271;25258;-33
2022/11/20 06:46:43;;;;;;;12.30;10.90;;;;;;;;;;108558;1265;22547;-34
2022/11/20 06:49:16;;;;;;;12.90;11.30;;;;;;;;;;108552;1267;22590;-34
2022/11/20 06:51:48;;;;;;;12.30;10.80;;;;;;;;;;108526;1262;22703;-33
2022/11/20 06:54:20;;;;;;;12.00;10.70;;;;;;;;;;108591;1266;23162;-33
2022/11/20 06:56:53;;;;;;;12.30;11.00;;;;;;;;;;108575;1265;22544;-34
2022/11/20 06:59:25;;;;;;;11.90;10.70;;;;;;;;;;108555;1267;23872;-34
2022/11/20 07:02:00;;;;;;;12.20;10.30;;;;;;;;;;108481;1259;24283;-34
2022/11/20 07:04:32;;;;;;;12.00;10.40;;;;;;;;;;108551;1260;22550;-34
2022/11/20 07:07:05;;;;;;;12.30;10.20;;;;;;;;;;108569;1265;23795;-34
2022/11/20 07:09:38;;;;;;;11.90;10.50;;;;;;;;;;108554;1265;22514;-33
2022/11/20 07:12:13;;;;;;;11.90;10.50;;;;;;;;;;108536;1265;25393;-34
2022/11/20 07:14:45;;;;;;;12.00;10.70;;;;;;;;;;108548;1265;22534;-31
2022/11/20 07:17:17;;;;;;;12.00;10.70;;;;;;;;;;108568;1265;22756;-31
2022/11/20 07:19:49;;;;;;;11.60;10.00;;;;;;;;;;108566;1265;22602;-31
2022/11/20 07:22:21;;;;;;;12.40;10.90;;;;;;;;;;108548;1272;22573;-31
2022/11/20 07:24:53;;;;;;;13.20;10.40;;;;;;;;;;108533;1265;22611;-31
2022/11/20 07:27:25;;;;;;;11.70;10.20;;;;;;;;;;108510;1266;24937;-31
2022/11/20 07:29:58;;;;;;;12.20;10.50;;;;;;;;;;108520;1271;25264;-31
2022/11/20 07:32:30;;;;;;;11.70;10.50;;;;;;;;;;108515;1265;24043;-31
2022/11/20 07:35:03;;;;;;;11.80;10.50;;;;;;;;;;108504;1268;22557;-31
2022/11/20 07:37:38;;;;;;;11.90;10.60;;;;;;;;;;108548;1271;22562;-31
2022/11/20 07:40:12;;;;;;;11.20;10.00;;;;;;;;;;108517;1269;22724;-34
2022/11/20 07:42:51;;;;;;;11.80;10.50;;;;;;;;;;108516;1268;22679;-34
2022/11/20 07:45:25;;;;;;;12.10;10.70;;;;;;;;;;108591;1266;22714;-34
2022/11/20 07:47:57;;;;;;;11.40;10.10;;;;;;;;;;108543;1271;22557;-34
2022/11/20 07:50:29;;;;;;;12.50;10.90;;;;;;;;;;108583;1271;22556;-34
2022/11/20 07:53:06;;;;;;;11.90;10.60;;;;;;;;;;108506;1269;22594;-34
2022/11/20 07:55:38;;;;;;;11.50;10.10;;;;;;;;;;108588;1265;22631;-34
2022/11/20 07:58:11;;;;;;;11.70;10.40;;;;;;;;;;108561;1268;24152;-34
2022/11/20 08:00:43;;;;;;;12.30;11.00;;;;;;;;;;108561;1267;22533;-34
2022/11/20 08:03:15;;;;;;;12.60;10.80;;;;;;;;;;108473;1271;22571;-34
2022/11/20 08:05:47;;;;;;;11.50;10.10;;;;;;;;;;108555;1266;22628;-33
2022/11/20 08:08:20;;;;;;;12.90;11.10;;;;;;;;;;108533;1271;22540;-33
2022/11/20 08:14:11;;;;;;;11.70;10.50;;;;;;;;;;108565;1268;22527;-33
2022/11/20 08:16:35;;;;;;;12.60;11.30;;;;;;;;;;108535;1269;25260;-34
2022/11/20 08:19:09;;;;;;;12.40;11.10;;;;;;;;;;108458;1267;22537;-33
2022/11/20 08:21:45;;;;;;;12.80;10.90;;;;;;;;;;108572;1272;22523;-34
2022/11/20 08:24:22;;;;;;;13.40;11.00;;;;;;;;;;108350;1272;22545;-34
2022/11/20 08:26:54;;;;;;;14.70;11.60;;;;;;;;;;108589;1266;22572;-34
2022/11/20 08:29:26;;;;;;;12.20;10.80;;;;;;;;;;108546;1271;22616;-30
2022/11/20 08:32:01;;;;;;;12.00;10.70;;;;;;;;;;108571;1268;24516;-30
2022/11/20 08:34:42;;;;;;;13.20;11.10;;;;;;;;;;108423;1274;22515;-32
2022/11/20 08:37:14;;;;;;;12.40;10.80;;;;;;;;;;108485;1258;22507;-32
2022/11/20 08:39:48;;;;;;;11.60;10.40;;;;;;;;;;108469;1272;22559;-33
2022/11/20 08:42:23;;;;;;;12.00;10.70;;;;;;;;;;108434;1273;22527;-32
2022/11/20 08:44:55;;;;;;;12.90;11.20;;;;;;;;;;108445;1273;22500;-29
2022/11/20 08:47:27;;;;;;;12.90;10.90;;;;;;;;;;108454;1274;23855;-29
2022/11/20 08:49:59;;;;;;;12.80;10.80;;;;;;;;;;108400;1273;23845;-29
2022/11/20 08:52:31;;;;;;;13.00;10.90;;;;;;;;;;108441;1266;22502;-29
2022/11/20 08:55:03;;;;;;;12.80;10.70;;;;;;;;;;108425;1268;22665;-29
2022/11/20 08:57:37;;;;;;;12.90;11.50;;;;;;;;;;108461;1271;22670;-30
2022/11/20 09:00:16;;;;;;;13.30;11.10;;;;;;;;;;108464;1267;22756;-27
2022/11/20 09:02:48;;;;;;;13.10;11.40;;;;;;;;;;108461;1270;22605;-27
2022/11/20 09:05:21;;;;;;;12.50;10.70;;;;;;;;;;108430;1268;26035;-27
2022/11/20 09:07:53;;;;;;;13.50;11.60;;;;;;;;;;108419;1268;22554;-30
2022/11/20 09:10:25;;;;;;;12.00;10.70;;;;;;;;;;108417;1274;22494;-29
2022/11/20 09:12:58;;;;;;;13.70;11.80;;;;;;;;;;108464;1265;25397;-30
2022/11/20 09:15:30;;;;;;;13.50;11.60;;;;;;;;;;108398;1268;22549;-30
2022/11/20 09:18:05;;;;;;;13.60;11.60;;;;;;;;;;108456;1267;22612;-29
2022/11/20 09:20:37;;;;;;;14.30;11.90;;;;;;;;;;108493;1267;22494;-30
2022/11/20 09:23:12;;;;;;;12.90;11.30;;;;;;;;;;108459;1274;23915;-30
2022/11/20 09:25:45;;;;;;;13.40;11.40;;;;;;;;;;108416;1267;25940;-30
2022/11/20 09:28:16;;;;;;;;;;;;;;;;;;108487;1265;22581;-30
2022/11/20 09:30:48;;;;;;;14.10;11.50;;;;;;;;;;108443;1267;23852;-30
2022/11/20 09:33:20;;;;;;;13.50;11.90;;;;;;;;;;108465;1274;22515;-30
2022/11/20 09:35:55;;;;;;;14.80;12.80;;;;;;;;;;108381;1274;22779;-30
2022/11/20 09:38:27;;;;;;;13.90;11.00;;;;;;;;;;108471;1268;25280;-34
2022/11/20 09:41:07;;;;;;;15.90;11.90;;;;;;;;;;108456;1272;25222;-33
2022/11/20 09:43:53;;;;;;;13.30;11.90;;;;;;;;;;108391;1274;22599;-34
2022/11/20 09:46:34;;;;;;;15.20;12.30;;;;;;;;;;108434;1268;27090;-34
2022/11/20 09:49:28;;;;;;;15.90;12.30;;;;;;;;;;108451;1268;22511;-34
2022/11/20 09:52:16;;;;;;;15.20;12.40;;;;;;;;;;108497;1265;22550;-34
2022/11/20 09:54:49;;;;;;;14.90;12.60;;;;;;;;;;108435;1270;22555;-34
2022/11/20 09:57:26;;;;;;;15.70;13.40;;;;;;;;;;108486;1268;22615;-34
2022/11/20 10:00:02;;;;;;;14.80;12.60;;;;;;;;;;108438;1272;22532;-30
2022/11/20 10:02:43;;;;;;;15.10;12.80;;;;;;;;;;108451;1272;22565;-30
2022/11/20 10:05:28;;;;;;;14.20;12.80;;;;;;;;;;108419;1269;22559;-30
2022/11/20 10:08:15;;;;;;;13.50;11.90;;;;;;;;;;108467;1274;22541;-32
2022/11/20 10:10:50;;;;;;;15.70;12.70;;;;;;;;;;108440;1268;23912;-32
2022/11/20 10:13:39;;;;;;;14.40;12.70;;;;;;;;;;108434;1265;22509;-30
2022/11/20 10:16:30;;;;;;;14.00;12.50;;;;;;;;;;108363;1272;22704;-30
2022/11/20 10:19:24;;;;;;;14.90;13.30;;;;;;;;;;108459;1272;25259;-30
2022/11/20 10:22:09;;;;;;;14.10;12.40;;;;;;;;;;108386;1271;22585;-30
2022/11/20 10:24:59;;;;;;;15.10;13.30;;;;;;;;;;108398;1267;25405;-33
2022/11/20 10:27:57;;;;;;;15.40;13.30;;;;;;;;;;108391;1274;22591;-33
2022/11/20 10:30:30;;;;;;;14.10;12.60;;;;;;;;;;108429;1269;22586;-33
2022/11/20 10:33:04;;;;;;;;;;;;;;;;;;108273;1274;22535;-30
2022/11/20 10:35:44;;;;;;;14.20;12.70;;;;;;;;;;108412;1268;22605;-30
2022/11/20 10:38:24;;;;;;;14.30;12.80;;;;;;;;;;108422;1271;22525;-30
2022/11/20 10:41:24;;;;;;;13.80;12.20;;;;;;;;;;108434;1270;22616;-27
2022/11/20 10:44:04;;;;;;;13.90;12.40;;;;;;;;;;108357;1274;22498;-27
2022/11/20 10:46:44;;;;;;;13.60;12.10;;;;;;;;;;108419;1274;23931;-30
2022/11/20 10:49:24;;;;;;;14.00;12.40;;;;;;;;;;108444;1270;22632;-30
2022/11/20 10:52:08;;;;;;;14.20;12.40;;;;;;;;;;108439;1274;22552;-30
2022/11/20 10:54:48;;;;;;;14.10;12.40;;;;;;;;;;108462;1272;22686;-30
2022/11/20 10:57:38;;;;;;;14.10;12.70;;;;;;;;;;108421;1272;22490;-30
2022/11/20 11:00:16;;;;;;;14.50;12.80;;;;;;;;;;108433;1264;22497;-30
2022/11/20 11:02:52;;;;;;;14.10;12.60;;;;;;;;;;108427;1264;23861;-30
2022/11/20 11:05:38;;;;;;;13.80;12.30;;;;;;;;;;108457;1274;22549;-30
2022/11/20 11:08:17;;;;;;;13.40;12.00;;;;;;;;;;108401;1272;22598;-30
2022/11/20 11:10:54;;;;;;;13.90;12.10;;;;;;;;;;108446;1264;22686;-30
2022/11/20 11:13:30;;;;;;;14.40;12.40;;;;;;;;;;108468;1269;22609;-30
2022/11/20 11:16:02;;;;;;;13.90;12.50;;;;;;;;;;108453;1265;23790;-30
2022/11/20 11:18:37;;;;;;;14.40;12.70;;;;;;;;;;108430;1268;23726;-29
2022/11/20 11:24:04;;;;;;;14.40;12.80;;;;;;;;;;108681;1247;22512;-30
2022/11/20 11:26:37;;;;;;;14.10;12.60;;;;;;;;;;108427;1262;22549;-31
2022/11/20 11:29:19;;;;;;;13.70;12.30;;;;;;;;;;108505;1268;24073;-32
2022/11/20 11:31:51;;;;;;;14.60;13.00;;;;;;;;;;108484;1266;22551;-31
2022/11/20 11:34:23;;;;;;;14.70;11.90;;;;;;;;;;108436;1261;21997;-31
2022/11/20 11:36:59;;;;;;;13.70;12.20;;;;;;;;;;108311;1265;22604;-29
2022/11/20 11:39:33;;;;;;;13.50;12.00;;;;;;;;;;108432;1267;22577;-29
2022/11/20 11:42:05;;;;;;;13.50;12.10;;;;;;;;;;108433;1267;22693;-29
2022/11/20 11:47:33;;;;;;;14.30;12.00;;;;;;;;;;108388;1261;22732;-29
2022/11/20 11:50:21;;;;;;;13.20;11.70;;;;;;;;;;108392;1267;22616;-29
2022/11/20 11:53:11;;;;;;;14.00;12.20;;;;;;;;;;108449;1262;22551;-29
2022/11/20 11:55:50;;;;;;;13.20;11.70;;;;;;;;;;108390;1267;22529;-28
2022/11/20 11:58:45;;;;;;;13.90;11.80;;;;;;;;;;108438;1265;24209;-29
2022/11/20 12:01:31;;;;;;;13.20;11.20;;;;;;;;;;108189;1268;331933;-27
2022/11/20 12:04:17;;;;;;;13.00;11.40;;;;;;;;;;108453;1268;22502;-27
2022/11/20 12:06:58;;;;;;;13.00;11.50;;;;;;;;;;108463;1267;22483;-27
2022/11/20 12:09:42;;;;;;;13.50;11.50;;;;;;;;;;108429;1268;23891;-27
2022/11/20 12:12:18;;;;;;;;;;;;;;;;;;108278;1261;23243;-29
2022/11/20 12:14:52;;;;;;;12.70;11.30;;;;;;;;;;108436;1268;22540;-29
2022/11/20 12:17:25;;;;;;;14.10;11.60;;;;;;;;;;108450;1262;22554;-31
2022/11/20 12:19:58;;;;;;;13.20;11.20;;;;;;;;;;108453;1262;22653;-30
2022/11/20 12:22:42;;;;;;;12.50;11.20;;;;;;;;;;108462;1268;22614;-29
2022/11/20 12:25:18;;;;;;;13.60;11.60;;;;;;;;;;108464;1267;22668;-33
2022/11/20 12:28:38;;;;;;;13.90;11.30;;;;;;;;;;108369;1261;22497;-33
2022/11/20 12:31:31;;;;;;;12.20;10.70;;;;;;;;;;108464;1267;22523;-33
2022/11/20 12:34:20;;;;;;;12.00;10.50;;;;;;;;;;108398;1268;24056;-30
2022/11/20 12:37:05;;;;;;;12.70;11.20;;;;;;;;;;108458;1268;22546;-33
2022/11/20 12:39:45;;;;;;;12.00;10.80;;;;;;;;;;108416;1267;23796;-33
2022/11/20 12:45:55;;;;;;;12.30;10.90;;;;;;;;;;108475;1261;22523;-33
2022/11/20 12:48:43;;;;;;;13.60;11.00;;;;;;;;;;108408;1262;25274;-33
2022/11/20 12:51:47;;;;;;;13.00;11.10;;;;;;;;;;108317;1261;22546;-33
2022/11/20 12:54:56;;;;;;;11.80;10.10;;;;;;;;;;108481;1268;22565;-33
2022/11/20 12:57:38;;;;;;;12.00;10.70;;;;;;;;;;108415;1267;22531;-32
2022/11/20 13:00:18;;;;;;;13.50;10.80;;;;;;;;;;108350;1268;22542;-32
2022/11/20 13:03:31;;;;;;;12.40;10.80;;;;;;;;;;108388;1268;24280;-31
2022/11/20 13:06:14;;;;;;;12.60;10.20;;;;;;;;;;108331;1268;24203;-32
2022/11/20 13:08:51;;;;;;;11.70;10.40;;;;;;;;;;108391;1268;22513;-32
2022/11/20 13:11:35;;;;;;;12.10;10.80;;;;;;;;;;108369;1267;22556;-32
2022/11/20 13:14:39;;;;;;;12.90;10.40;;;;;;;;;;108337;1267;22528;-32
2022/11/20 13:17:21;;;;;;;13.40;10.40;;;;;;;;;;108437;1268;22698;-32
2022/11/20 13:19:58;;;;;;;11.70;10.20;;;;;;;;;;108345;1267;22621;-31
2022/11/20 13:22:47;;;;;;;11.90;10.60;;;;;;;;;;108408;1267;22689;-31
2022/11/20 13:25:31;;;;;;;11.60;10.40;;;;;;;;;;108400;1268;22554;-30
2022/11/20 13:28:04;;;;;;;;;;;;;;;;;;108428;1268;22539;-30
2022/11/20 13:30:37;;;;;;;12.20;10.10;;;;;;;;;;108425;1268;22907;-30
2022/11/20 13:33:26;;;;;;;11.30;10.00;;;;;;;;;;108438;1265;22673;-30
2022/11/20 13:36:05;;;;;;;12.80;10.80;;;;;;;;;;108469;1267;22500;-30
2022/11/20 13:38:50;;;;;;;12.00;9.90;;;;;;;;;;108423;1265;22557;-30
2022/11/20 13:41:33;;;;;;;11.40;10.20;;;;;;;;;;108403;1265;22606;-30
2022/11/20 13:44:30;;;;;;;12.20;10.20;;;;;;;;;;108440;1267;25279;-30
2022/11/20 13:47:02;;;;;;;11.90;10.40;;;;;;;;;;108453;1267;25476;-30
2022/11/20 13:49:45;;;;;;;12.40;10.70;;;;;;;;;;108401;1267;22555;-30
2022/11/20 13:52:43;;;;;;;11.70;10.50;;;;;;;;;;108471;1267;22633;-30
2022/11/20 13:55:24;;;;;;;12.40;10.50;;;;;;;;;;108428;1264;25247;-29
2022/11/20 13:58:14;;;;;;;11.80;10.30;;;;;;;;;;108477;1265;22578;-29
2022/11/20 14:00:58;;;;;;;11.10;9.90;;;;;;;;;;108411;1262;22518;-29
2022/11/20 14:03:33;;;;;;;11.40;10.30;;;;;;;;;;108470;1267;22567;-29
2022/11/20 14:06:13;;;;;;;12.20;10.50;;;;;;;;;;108487;1265;22784;-29
2022/11/20 14:08:49;;;;;;;11.40;10.20;;;;;;;;;;108457;1267;22560;-29
2022/11/20 14:11:24;;;;;;;11.40;10.00;;;;;;;;;;108423;1267;25324;-29
2022/11/20 14:14:03;;;;;;;11.90;10.60;;;;;;;;;;108444;1267;24082;-29
2022/11/20 14:16:38;;;;;;;11.10;9.80;;;;;;;;;;108484;1269;22548;-29
2022/11/20 14:19:30;;;;;;;11.80;10.20;;;;;;;;;;108471;1267;25421;-29
2022/11/20 14:22:20;;;;;;;12.10;10.40;;;;;;;;;;108371;1263;22549;-33
2022/11/20 14:25:04;;;;;;;11.70;10.40;;;;;;;;;;108471;1268;22912;-32
2022/11/20 14:27:42;;;;;;;11.00;9.70;;;;;;;;;;108386;1265;22548;-31
2022/11/20 14:30:21;;;;;;;11.50;10.30;;;;;;;;;;108382;1268;24173;-29
2022/11/20 14:32:57;;;;;;;11.00;9.40;;;;;;;;;;108481;1267;22576;-29
2022/11/20 14:35:32;;;;;;;11.40;10.00;;;;;;;;;;108444;1261;22621;-32
2022/11/20 14:38:05;;;;;;;10.80;9.40;;;;;;;;;;108388;1267;22614;-31
2022/11/20 14:40:39;;;;;;;13.60;10.10;;;;;;;;;;108358;1262;22560;-32
2022/11/20 14:43:26;;;;;;;11.80;10.30;;;;;;;;;;108429;1268;22682;-32
2022/11/20 14:46:06;;;;;;;10.70;9.50;;;;;;;;;;108450;1268;22595;-32
2022/11/20 14:48:42;;;;;;;11.50;10.00;;;;;;;;;;108377;1268;22598;-31
2022/11/20 14:51:31;;;;;;;11.40;10.20;;;;;;;;;;108361;1267;23292;-32
2022/11/20 14:54:18;;;;;;;12.20;9.90;;;;;;;;;;108395;1274;25406;-32
2022/11/20 14:57:00;;;;;;;11.20;9.60;;;;;;;;;;108381;1268;22550;-32
2022/11/20 14:59:34;;;;;;;13.20;10.90;;;;;;;;;;108431;1268;22494;-29
2022/11/20 15:02:11;;;;;;;12.30;10.40;;;;;;;;;;108580;1267;22628;-30
2022/11/20 15:04:59;;;;;;;12.80;10.80;;;;;;;;;;108548;1266;22555;-30
2022/11/20 15:07:34;;;;;;;12.90;10.40;;;;;;;;;;108520;1268;22562;-29
2022/11/20 15:10:20;;;;;;;12.90;10.50;;;;;;;;;;108614;1268;22503;-28
2022/11/20 15:12:55;;;;;;;12.70;10.60;;;;;;;;;;108447;1271;24001;-27
2022/11/20 15:15:46;;;;;;;12.70;11.10;;;;;;;;;;108464;1272;25394;-28